Latest Weather Observations for Strahan

IDT60801

Issued at 8:35 am EDT Sunday 26 October 2014 (issued every 30 minutes, with the page automatically refreshed every 10 minutes)

About weather observations | Map of weather stations | Latest weather observations for TAS | Other Formats
Station Details ID: 097072 Name: STRAHAN AERODROME Lat: -42.16 Lon: 145.29 Height: 21.0 m
Data from the previous 72 hours. | See also: Recent months at Strahan
Date/Time
EDT
Temp
°C
App
Temp
°C
Dew
Point
Rel
Hum
%
Delta-T
°C
Wind Press
QNH
hPa
Press
MSL
hPa
Rain
since 9 am
mm
Dir
 
Spd
km/h
Gust
km/h
Spd
kts
Gust
kts
26/08:30am 10.0 7.7 7.4 84 1.2 N 9 13 5 7 1013.1 1013.2 0.2
26/08:00am 9.4 7.4 7.3 87 1.0 NNE 7 9 4 5 1013.3 1013.4 0.2
26/07:30am 8.9 6.9 7.2 89 0.8 N 7 11 4 6 1013.2 1013.3 0.2
26/07:00am 8.6 6.6 7.2 91 0.7 NE 7 13 4 7 1012.9 1013.0 0.2
26/06:30am 8.4 6.0 7.2 92 0.6 NNE 9 11 5 6 1013.0 1013.1 0.2
26/06:00am 8.4 6.4 7.0 91 0.7 NNE 7 9 4 5 1013.1 1013.2 0.2
26/05:30am 8.4 6.6 7.0 91 0.7 NE 6 9 3 5 1013.2 1013.3 0.2
26/05:00am 8.5 6.7 7.0 90 0.7 NE 6 7 3 4 1013.0 1013.1 0.2
26/04:30am 8.4 6.4 6.9 90 0.7 NNE 7 9 4 5 1013.0 1013.1 0.2
26/04:00am 8.4 6.5 6.9 90 0.7 NW 6 6 3 3 1013.3 1013.4 0.2
26/03:30am 8.4 6.4 6.9 90 0.7 NNE 7 9 4 5 1013.4 1013.5 0.2
26/03:00am 8.3 6.3 6.4 88 0.9 NNE 6 7 3 4 1014.0 1014.1 0.2
26/02:30am 8.4 6.5 6.5 88 0.9 NNE 6 7 3 4 1014.1 1014.2 0.2
26/02:00am 8.7 6.7 6.3 85 1.1 WSW 6 6 3 3 1014.1 1014.2 0.2
26/01:30am 9.0 6.8 6.4 84 1.2 WSW 7 9 4 5 1014.5 1014.6 0.2
26/01:00am 9.2 7.3 6.5 83 1.3 NNE 6 9 3 5 1015.0 1015.1 0.2
26/12:30am 9.3 6.8 6.6 83 1.3 ESE 9 11 5 6 1015.5 1015.6 0.2
26/12:00am 9.3 6.7 6.0 80 1.5 S 9 13 5 7 1016.3 1016.3 0.2
 
Date/Time
EDT
Temp
°C
App
Temp
°C
Dew
Point
Rel
Hum
%
Delta-T
°C
Wind Press
QNH
hPa
Press
MSL
hPa
Rain
since 9 am
mm
Dir
 
Spd
km/h
Gust
km/h
Spd
kts
Gust
kts
25/11:30pm 9.2 5.4 5.8 79 1.6 SSW 15 19 8 10 1017.0 1017.0 0.2
25/11:00pm 9.4 5.7 6.3 81 1.4 WSW 15 20 8 11 1016.7 1016.7 0.2
25/10:30pm 9.1 6.6 6.5 84 1.2 WSW 9 13 5 7 1016.3 1016.3 0.2
25/10:00pm 9.0 6.8 6.3 83 1.2 W 7 7 4 4 1016.0 1016.0 0.2
25/09:30pm 9.1 7.1 6.4 83 1.2 S 6 7 3 4 1015.9 1015.9 0.2
25/09:00pm 9.2 6.6 6.1 81 1.4 SW 9 13 5 7 1016.0 1016.0 0.2
25/08:30pm 9.6 6.7 6.3 80 1.5 SW 11 15 6 8 1015.8 1015.8 0.2
25/08:00pm 10.4 6.7 6.5 77 1.8 S 15 19 8 10 1015.4 1015.5 0.2
25/07:30pm 10.6 6.6 6.6 76 1.9 S 17 24 9 13 1015.5 1015.6 0.2
25/07:00pm 10.8 6.4 6.4 74 2.1 S 19 26 10 14 1015.4 1015.5 0.2
25/06:30pm 11.8 5.7 6.5 70 2.5 S 28 37 15 20 1015.7 1015.7 0.2
25/06:00pm 13.2 7.7 7.4 68 2.8 SSW 26 37 14 20 1015.5 1015.6 0.2
25/05:30pm 13.7 7.3 7.0 64 3.3 SSW 30 37 16 20 1015.2 1015.3 0.2
25/05:00pm 14.6 9.4 7.4 62 3.5 SSW 24 32 13 17 1015.0 1015.1 0.2
25/04:30pm 15.1 10.1 8.1 63 3.5 S 24 33 13 18 1014.9 1015.0 0.2
25/04:00pm 15.3 10.6 7.6 60 3.8 SSW 22 30 12 16 1015.4 1015.5 0.2
25/03:30pm 15.6 11.0 8.1 61 3.8 SW 22 30 12 16 1015.8 1015.8 0.2
25/03:00pm 14.5 9.4 7.8 64 3.3 SW 24 32 13 17 1016.0 1016.0 0.2
25/02:30pm 16.3 11.2 9.3 63 3.6 SW 26 32 14 17 1016.5 1016.5 0.2
25/02:00pm 15.4 11.3 7.9 61 3.8 SSW 19 24 10 13 1016.5 1016.5 0.2
25/01:30pm 15.9 12.6 6.6 54 4.6 S 13 20 7 11 1016.5 1016.5 0.2
25/01:00pm 14.8 12.0 6.9 59 3.9 S 11 20 6 11 1016.8 1016.8 0.2
25/12:30pm 14.4 11.5 6.3 58 3.9 SSW 11 17 6 9 1017.2 1017.2 0.0
25/12:00pm 14.1 11.0 7.4 64 3.3 S 13 17 7 9 1017.5 1017.5 0.0
25/11:30am 14.0 10.3 7.8 66 3.1 S 17 24 9 13 1017.8 1017.8 0.0
25/11:00am 13.2 9.2 8.1 71 2.5 SW 19 24 10 13 1017.9 1017.9 0.0
25/10:30am 12.8 9.4 7.7 71 2.5 S 15 22 8 12 1017.6 1017.6 0.0
25/10:00am 11.7 8.4 8.0 78 1.8 S 15 22 8 12 1017.3 1017.3 0.0
25/09:30am 11.0 7.0 8.4 84 1.3 SSW 19 26 10 14 1017.4 1017.4 0.0
25/09:05am 11.1 7.2 9.4 89 0.9 SSW 20 28 11 15 1017.1 1017.1 0.0
25/09:00am 10.7 6.8 8.8 88 0.9 SSW 19 28 10 15 1017.0 1017.0 0.4
25/08:52am 10.8 7.4 9.2 90 0.8 SSW 17 22 9 12 1016.8 1016.8 0.4
25/08:48am 10.8 7.5 9.4 91 0.7 SSW 17 22 9 12 1016.7 1016.7 0.4
25/08:30am 10.6 7.3 9.5 93 0.6 SSW 17 20 9 11 1016.8 1016.8 0.4
25/08:10am 10.3 7.3 9.4 94 0.4 SSW 15 22 8 12 1016.6 1016.6 0.4
25/08:00am 10.3 8.1 9.4 94 0.4 S 11 15 6 8 1016.5 1016.5 0.4
25/07:30am 10.2 8.4 9.6 96 0.3 S 9 13 5 7 1016.2 1016.2 0.4
25/07:26am 10.2 8.4 9.6 96 0.3 S 9 13 5 7 1016.2 1016.2 0.4
25/07:15am 10.3 7.8 9.7 96 0.3 S 13 17 7 9 1016.0 1016.0 0.4
25/07:00am 10.0 8.2 9.4 96 0.3 SW 9 15 5 8 1015.8 1015.8 0.4
25/06:30am 9.9 7.7 9.4 97 0.2 SW 11 13 6 7 1015.0 1015.1 0.4
25/06:00am 9.9 8.1 9.4 97 0.2 SW 9 11 5 6 1014.5 1014.6 0.4
25/05:30am 9.9 8.1 9.4 97 0.2 SW 9 11 5 6 1014.1 1014.2 0.4
25/05:02am 9.8 7.2 9.3 97 0.2 SSW 13 17 7 9 1014.1 1014.2 0.4
25/05:00am 9.7 7.1 9.2 97 0.2 SSW 13 17 7 9 1014.0 1014.1 0.4
25/04:30am 10.1 6.9 9.8 98 0.2 SSW 17 22 9 12 1013.6 1013.7 0.4
25/04:15am 10.2 6.6 9.9 98 0.2 SW 19 24 10 13 1013.6 1013.7 0.4
25/04:00am 10.4 6.9 10.1 98 0.2 SW 19 24 10 13 1013.5 1013.6 0.4
25/03:48am 10.5 7.4 10.2 98 0.2 SW 17 24 9 13 1013.5 1013.6 0.4
25/03:30am 10.5 7.4 10.2 98 0.2 WSW 17 24 9 13 1013.4 1013.5 0.4
25/03:22am 10.6 7.5 10.3 98 0.2 WSW 17 20 9 11 1013.2 1013.3 0.4
25/03:07am 10.7 7.6 10.4 98 0.2 WSW 17 22 9 12 1013.1 1013.2 0.4
25/03:00am 10.7 7.6 10.4 98 0.2 WSW 17 20 9 11 1013.1 1013.2 0.4
25/02:30am 10.9 8.3 10.6 98 0.2 W 15 19 8 10 1012.9 1013.0 0.4
25/02:00am 11.0 8.8 10.7 98 0.2 W 13 17 7 9 1012.9 1013.0 0.4
25/01:30am 10.9 8.3 10.6 98 0.2 W 15 20 8 11 1013.0 1013.1 0.4
25/01:00am 10.8 8.1 10.5 98 0.2 W 15 20 8 11 1012.9 1013.0 0.4
25/12:54am 10.8 7.8 10.5 98 0.2 WSW 17 20 9 11 1012.9 1013.0 0.4
25/12:30am 10.9 7.5 10.6 98 0.2 WSW 19 24 10 13 1012.6 1012.7 0.4
25/12:00am 11.3 7.8 11.0 98 0.2 W 20 28 11 15 1012.5 1012.6 0.0
 
Date/Time
EDT
Temp
°C
App
Temp
°C
Dew
Point
Rel
Hum
%
Delta-T
°C
Wind Press
QNH
hPa
Press
MSL
hPa
Rain
since 9 am
mm
Dir
 
Spd
km/h
Gust
km/h
Spd
kts
Gust
kts
24/11:30pm 11.6 8.2 11.3 98 0.2 NW 20 26 11 14 1012.2 1012.3 0.0
24/11:00pm 11.9 8.2 11.4 97 0.3 NW 22 28 12 15 1011.8 1011.9 0.0
24/10:55pm 12.1 8.0 11.6 97 0.3 NW 24 32 13 17 1011.8 1011.9 0.0
24/10:30pm 11.8 6.9 11.3 97 0.3 NW 28 39 15 21 1011.4 1011.5 0.0
24/10:00pm 11.9 6.2 11.1 95 0.4 NW 32 41 17 22 1011.2 1011.3 0.0
24/09:30pm 13.0 9.0 11.9 93 0.6 NNW 24 33 13 18 1010.7 1010.8 0.0
24/09:00pm 13.1 11.0 11.3 89 1.0 NNW 13 22 7 12 1010.0 1010.0 0.0
24/08:57pm 12.7 10.9 10.8 88 1.0 NNW 11 22 6 12 1010.1 1010.1 0.0
24/08:36pm 12.4 11.2 9.4 82 1.5 N 6 9 3 5 1010.1 1010.1 0.0
24/08:30pm 12.7 11.3 9.7 82 1.5 NNE 7 9 4 5 1010.0 1010.0 0.0
24/08:00pm 13.0 13.0 9.8 81 1.6 CALM 0 4 0 2 1010.1 1010.1 0.0
24/07:54pm 13.0 12.2 9.6 80 1.7 WNW 4 9 2 5 1010.1 1010.1 0.0
24/07:30pm 13.3 11.5 9.5 78 1.9 NW 9 11 5 6 1009.9 1009.9 0.0
24/07:00pm 13.8 9.5 9.3 74 2.3 W 22 30 12 16 1009.4 1009.4 0.0
24/06:30pm 15.0 11.6 9.1 68 3.0 W 17 20 9 11 1008.3 1008.3 0.0
24/06:00pm 17.3 15.5 9.5 60 4.1 NNW 9 13 5 7 1007.6 1007.6 0.0
24/05:30pm 16.4 14.5 8.9 61 3.9 NE 9 11 5 6 1007.6 1007.6 0.0
24/05:00pm 16.6 13.2 9.1 61 3.9 ESE 17 26 9 14 1007.7 1007.7 0.0
24/04:30pm 14.4 12.2 7.9 65 3.2 SSW 9 13 5 7 1009.3 1009.3 0.0
24/04:00pm 14.1 9.1 8.1 67 3.0 W 24 33 13 18 1009.4 1009.4 0.0
24/03:30pm 16.3 12.2 8.8 61 3.8 WSW 20 26 11 14 1009.0 1009.0 0.0
24/03:00pm 17.7 13.3 9.1 57 4.5 W 22 28 12 15 1009.0 1009.0 0.0
24/02:30pm 17.9 13.7 9.8 59 4.3 W 22 26 12 14 1009.2 1009.2 0.0
24/02:00pm 19.2 15.9 9.4 53 5.2 W 17 28 9 15 1009.3 1009.3 0.0
24/01:40pm 23.4 18.4 11.1 46 6.9 N 28 46 15 25 1009.2 1009.2 0.0
24/01:30pm 22.4 17.1 9.9 45 6.8 N 28 44 15 24 1009.1 1009.1 0.0
24/01:00pm 22.1 15.9 9.9 46 6.6 N 33 52 18 28 1009.4 1009.4 0.0
24/12:46pm 22.9 17.0 10.3 45 6.9 N 32 54 17 29 1009.7 1009.7 0.0
24/12:35pm 22.4 17.4 10.9 48 6.4 N 28 39 15 21 1010.1 1010.1 0.0
24/12:30pm 20.9 18.5 10.1 50 5.8 S 13 19 7 10 1010.3 1010.3 0.0
24/12:00pm 18.1 14.4 8.1 52 5.1 SSE 17 24 9 13 1011.1 1011.2 0.0
24/11:30am 16.6 12.9 7.8 56 4.4 SSE 17 24 9 13 1012.0 1012.1 0.0
24/11:00am 15.5 10.5 4.8 49 5.0 SSE 20 26 11 14 1012.6 1012.7 0.0
24/10:30am 14.2 8.5 5.0 54 4.3 SSE 24 33 13 18 1013.2 1013.3 0.0
24/10:00am 13.2 8.5 6.1 62 3.4 SSE 20 26 11 14 1013.7 1013.8 0.0
24/09:30am 12.4 7.9 6.9 69 2.6 SSE 20 28 11 15 1014.0 1014.1 0.0
24/09:00am 10.9 6.5 7.2 78 1.8 SSE 20 24 11 13 1014.5 1014.6 0.0
24/08:30am 9.8 6.2 8.2 90 0.8 SE 17 20 9 11 1014.9 1015.0 0.0
24/08:00am 9.1 7.1 8.6 97 0.2 SE 9 13 5 7 1015.3 1015.4 0.0
24/07:30am 8.1 6.8 7.7 97 0.2 NE 4 7 2 4 1015.9 1015.9 0.0
24/07:00am 5.4 2.6 5.0 97 0.2 E 9 13 5 7 1016.1 1016.1 0.0
24/06:58am 5.3 2.4 4.9 97 0.2 E 9 13 5 7 1016.1 1016.1 0.0
24/06:46am 4.9 2.9 4.5 97 0.2 E 4 9 2 5 1016.2 1016.2 0.0
24/06:30am 4.5 1.9 4.1 97 0.2 NNE 7 13 4 7 1016.5 1016.5 0.0
24/06:13am 5.3 2.8 4.9 97 0.2 NE 7 9 4 5 1016.7 1016.7 0.0
24/06:00am 5.2 2.9 4.8 97 0.2 N 6 9 3 5 1016.9 1016.9 0.0
24/05:47am 5.1 1.8 4.7 97 0.2 NW 11 13 6 7 1017.0 1017.0 0.0
24/05:30am 4.5 0.7 4.1 97 0.2 NW 13 17 7 9 1016.9 1016.9 0.0
24/05:00am 5.6 4.5 5.2 97 0.2 CALM 0 9 0 5 1016.4 1016.4 0.0
24/04:30am 5.9 3.2 5.5 97 0.2 E 9 9 5 5 1016.7 1016.7 0.0
24/04:15am 5.5 2.7 5.1 97 0.2 E 9 9 5 5 1017.1 1017.1 0.0
24/04:00am 4.2 0.7 3.6 96 0.2 E 11 13 6 7 1017.3 1017.3 0.0
24/03:40am 5.3 2.4 4.9 97 0.2 E 9 11 5 6 1017.8 1017.8 0.0
24/03:30am 5.2 2.7 4.6 96 0.3 E 7 9 4 5 1018.2 1018.2 0.0
24/03:00am 5.6 3.3 4.7 94 0.4 NE 6 7 3 4 1019.0 1019.0 0.0
24/02:30am 7.1 4.6 6.5 96 0.3 N 9 13 5 7 1019.6 1019.6 0.0
24/02:00am 6.6 4.0 6.0 96 0.3 N 9 11 5 6 1019.9 1019.9 0.0
24/01:30am 7.1 4.9 6.4 95 0.3 N 7 9 4 5 1020.0 1020.0 0.0
24/01:00am 6.6 4.5 5.6 93 0.4 NE 6 7 3 4 1020.4 1020.4 0.0
24/12:30am 7.5 5.4 6.6 94 0.4 NNE 7 9 4 5 1020.9 1020.9 0.0
24/12:00am 7.0 4.9 5.8 92 0.5 N 6 7 3 4 1021.2 1021.2 0.0
 
Date/Time
EDT
Temp
°C
App
Temp
°C
Dew
Point
Rel
Hum
%
Delta-T
°C
Wind Press
QNH
hPa
Press
MSL
hPa
Rain
since 9 am
mm
Dir
 
Spd
km/h
Gust
km/h
Spd
kts
Gust
kts
23/11:30pm 7.4 5.2 6.0 91 0.6 N 7 9 4 5 1021.5 1021.5 0.0
23/11:00pm 7.8 5.6 6.3 90 0.7 N 7 7 4 4 1021.6 1021.6 0.0
23/10:30pm 8.5 6.1 6.8 89 0.8 N 9 11 5 6 1021.8 1021.8 0.0
23/10:02pm 8.9 6.5 7.0 88 0.9 N 9 11 5 6 1021.7 1021.7 0.0
23/10:00pm 8.9 6.5 7.0 88 0.9 N 9 11 5 6 1021.7 1021.7 0.0
23/09:30pm 9.7 8.1 8.1 90 0.8 NNW 6 7 3 4 1021.9 1021.9 0.0
23/09:00pm 9.9 7.7 7.7 86 1.0 NNW 9 11 5 6 1021.7 1021.7 0.0
23/08:30pm 10.8 8.6 7.9 82 1.4 NNW 9 9 5 5 1021.4 1021.4 0.0
23/08:00pm 11.8 9.7 8.1 78 1.8 NNW 9 9 5 5 1021.5 1021.5 0.0
23/07:33pm 13.2 11.3 7.4 68 2.8 NW 7 9 4 5 1021.3 1021.3 0.0
23/07:30pm 13.4 11.5 7.4 67 2.9 NW 7 9 4 5 1021.3 1021.3 0.0
23/07:00pm 15.2 13.0 6.2 55 4.3 W 7 11 4 6 1021.2 1021.2 0.0
23/06:30pm 15.7 13.1 5.9 52 4.7 W 9 13 5 7 1021.4 1021.4 0.0
23/06:00pm 15.9 12.3 5.2 49 5.1 W 13 19 7 10 1021.3 1021.3 0.0
23/05:30pm 16.5 13.5 5.8 49 5.2 W 11 17 6 9 1021.3 1021.3 0.0
23/05:00pm 17.1 13.8 6.3 49 5.3 WSW 13 20 7 11 1021.2 1021.2 0.0
23/04:30pm 17.8 13.9 7.2 50 5.3 W 17 22 9 12 1021.1 1021.1 0.0
23/04:00pm 17.6 13.0 6.5 48 5.5 W 20 28 11 15 1021.0 1021.0 0.0
23/03:30pm 18.6 14.5 6.1 44 6.2 W 17 22 9 12 1020.8 1020.8 0.0
23/03:00pm 18.9 14.5 6.7 45 6.1 W 19 24 10 13 1020.8 1020.8 0.0
23/02:30pm 19.2 15.0 7.6 47 5.9 W 19 24 10 13 1020.8 1020.8 0.0
23/02:00pm 20.1 16.4 7.8 45 6.3 W 17 22 9 12 1020.9 1020.9 0.0
23/01:30pm 20.3 16.4 7.3 43 6.6 WSW 17 22 9 12 1020.9 1020.9 0.0
23/01:06pm 18.9 14.8 4.3 38 7.0 S 15 20 8 11 1021.0 1021.0 0.0
23/01:00pm 19.6 15.4 5.6 40 6.9 S 17 22 9 12 1021.0 1021.0 0.0
23/12:52pm 18.7 13.9 4.5 39 6.8 S 19 24 10 13 1021.0 1021.0 0.0
23/12:30pm 19.0 14.3 6.1 43 6.4 S 20 26 11 14 1021.1 1021.1 0.0
23/12:00pm 17.3 12.2 6.2 48 5.4 S 22 32 12 17 1021.5 1021.5 0.0
23/11:30am 16.3 10.7 7.3 55 4.5 S 26 35 14 19 1021.8 1021.8 0.0
23/11:00am 15.5 10.4 7.8 60 3.8 S 24 32 13 17 1022.0 1022.0 0.0
23/10:30am 15.2 9.8 8.2 63 3.5 SSE 26 35 14 19 1022.2 1022.2 0.0
23/10:00am 14.2 8.5 8.2 67 3.0 SSE 28 41 15 22 1022.4 1022.4 0.0
23/09:30am 13.2 6.9 7.6 69 2.7 SSE 30 41 16 22 1022.2 1022.2 0.0
23/09:00am 12.6 6.4 7.7 72 2.4 SSE 30 37 16 20 1022.3 1022.3 0.0

Other Formats:

Comma delimited format used in spreadsheet applications
http://www.bom.gov.au/fwo/IDT60801/IDT60801.94956.axf

JavaScript Object Notation format (JSON) in row-major order
http://www.bom.gov.au/fwo/IDT60801/IDT60801.94956.json